الصفحة الرئيسية
METAR-TAF:

METAR-TAF

مطار :

مطار نورمان مانلي الدولي

كينغستون, جامايكا

دائرة عرض: 17-56N, خط طول: 076-47W, ارتفاع: 3 متر

مراقبة الطقس الحالي

تاريخ ووقت الإصدار 11 دقيقة قبل الساعة 16:00UTC
ريح 13 عقدة من الشرق/الجنوب الشرقي
درجة الحرارة 30°درجة مئوية
الرطوبة 55%
ضغط 1015 hPa
الرؤية 10 كم أو أكثر
غيوم قليلة على ارتفاع 2200 قدم

METAR: MKJP 251600Z 12013KT 9999 FEW022 30/20 Q1015

زمن: 11:11 (16:11 UTC)

توقعات

تاريخ ووقت الإصدار 4ساعات و 56 دقيقة قبل الساعة 11:15UTC
التوقعات صالحة من25 الساعة 12 UTC إلى 26 الساعة 12 UTC
ريح 5 عقدة من الشمال
الرؤية 10 كم أو أكثر
غيوم قليلة على ارتفاع 2200 قدم
أصبح
من 25 الساعة 14 UTC إلى 25 الساعة 16 UTC
ريح 12 عقدة من الجنوب/الجنوب الشرقي
نظرية الاحتمالات 30% :
مؤقت
من 25 الساعة 18 UTC إلى 25 الساعة 24 UTC
غيوم قليلة على ارتفاع 2000 قدم
غيوم متفرقة على ارتفاع 3200 قدم
أصبح
من 26 الساعة 02 UTC إلى 26 الساعة 04 UTC
ريح 4 عقدة من الشمال

TAF: MKJP 251115Z 2512/2612 36005KT 9999 FEW022 BECMG 2514/2516 15012KT PROB30 TEMPO 2518/2524 FEW020 SCT032 BECMG 2602/2604 36004KT

أرصاد الطقس والتوقعات من أكثر من 4000 مطار (تقارير الطقس للمطار METAR والتنبؤ بالطقس بالمطارTAF).

المحطات المتاحة هي النقط الصفراء والحمراء على الخريطة.

حرك المؤشر فوق النقطة لمعرفة اسم المحطة.

ثم انقر لمعرفة أرصاد وتوقعات الطقس.

لتغيير الخارطة: اضغط على الأزرار الخضراء مع رمز الصليب الأسود للتكبير. على الزر الأخضر مع شرطة للتصغير، أو على الأسهم الخضراء للخرائط المجاورة.


METAR-TAF: